Time;durP1;ratioP1;P1;durP2;ratioP2;P2;SDS_P1;SDS_P2;PMS_P1;PMS_P2;Temp;Humidity;BMP_temperature;BMP_pressure;BME280_temperature;BME280_humidity;BME280_pressure;Samples;Min_cycle;Max_cycle;Signal;HPM_P1;HPM_P2
2021/03/20 00:01:17;;;;;;;2.83;1.98;;;;;;;18.68;50.03;103117.03;5060050;28;20032;-73
2021/03/20 00:03:42;;;;;;;3.08;2.42;;;;;;;18.70;49.85;103115.31;5070438;28;20025;-73
2021/03/20 00:06:09;;;;;;;4.25;2.28;;;;;;;18.65;49.93;103109.94;5068633;28;20048;-75
2021/03/20 00:08:36;;;;;;;2.80;2.03;;;;;;;18.67;49.95;103116.13;5060170;28;20028;-74
2021/03/20 00:11:01;;;;;;;3.00;1.92;;;;;;;18.65;49.76;103116.91;5059550;28;20360;-75
2021/03/20 00:13:30;;;;;;;2.58;1.90;;;;;;;18.64;49.94;103116.03;5057285;28;20055;-73
2021/03/20 00:15:56;;;;;;;3.00;1.98;;;;;;;18.57;49.94;103116.63;5051295;28;20502;-73
2021/03/20 00:18:24;;;;;;;2.50;1.90;;;;;;;18.66;49.94;103123.94;5073249;28;20072;-74
2021/03/20 00:20:50;;;;;;;2.72;2.00;;;;;;;18.63;49.85;103124.72;5066629;28;20032;-73
2021/03/20 00:23:15;;;;;;;4.43;2.33;;;;;;;18.62;49.96;103120.34;5068047;28;20036;-73
2021/03/20 00:25:41;;;;;;;3.45;1.63;;;;;;;18.59;49.83;103122.84;5048377;28;20029;-73
2021/03/20 00:28:11;;;;;;;3.13;2.28;;;;;;;18.57;49.95;103125.38;5050465;28;20063;-74
2021/03/20 00:30:38;;;;;;;5.05;2.13;;;;;;;18.62;49.87;103130.81;5074619;28;20132;-75
2021/03/20 00:33:03;;;;;;;2.70;1.90;;;;;;;18.59;49.86;103127.19;5065959;28;20096;-73
2021/03/20 00:35:29;;;;;;;2.33;1.98;;;;;;;18.61;49.98;103131.66;5064732;28;20103;-74
2021/03/20 00:37:54;;;;;;;3.42;2.30;;;;;;;18.54;49.88;103114.84;5046863;28;20074;-74
2021/03/20 00:40:30;;;;;;;2.22;1.73;;;;;;;18.58;49.76;103131.56;5060294;28;20312;-74
2021/03/20 00:42:56;;;;;;;2.90;2.08;;;;;;;18.59;49.89;103128.09;5066386;28;20486;-74
2021/03/20 00:45:24;;;;;;;2.92;1.73;;;;;;;18.57;49.69;103134.97;5059405;28;20024;-74
2021/03/20 00:47:50;;;;;;;4.35;2.85;;;;;;;18.56;49.81;103134.09;5064661;28;20032;-73
2021/03/20 00:50:18;;;;;;;3.92;2.22;;;;;;;18.53;49.61;103126.16;5047461;28;20021;-73
2021/03/20 00:52:44;;;;;;;4.15;2.45;;;;;;;18.57;49.84;103125.38;5062427;28;20029;-73
2021/03/20 00:55:11;;;;;;;1.85;1.40;;;;;;;18.54;49.79;103129.66;5053787;28;20032;-73
2021/03/20 00:57:37;;;;;;;2.80;2.05;;;;;;;18.56;49.78;103134.09;5034687;28;20029;-73
2021/03/20 01:00:07;;;;;;;3.40;2.25;;;;;;;18.56;49.71;103131.47;5055546;28;20032;-73
2021/03/20 01:02:32;;;;;;;2.80;2.10;;;;;;;18.54;49.60;103130.56;5054199;28;20378;-74
2021/03/20 01:04:58;;;;;;;2.60;2.15;;;;;;;18.48;49.79;103126.84;5054903;28;20021;-73
2021/03/20 01:07:23;;;;;;;2.35;1.85;;;;;;;18.55;49.75;103134.97;5063101;28;20048;-73
2021/03/20 01:09:48;;;;;;;2.10;1.63;;;;;;;18.54;49.63;103137.53;5060717;28;20045;-72
2021/03/20 01:12:14;;;;;;;2.55;1.73;;;;;;;18.55;49.67;103136.69;5044123;28;20092;-72
2021/03/20 01:14:39;;;;;;;2.97;1.80;;;;;;;18.48;49.70;103126.84;5051461;28;20024;-72
2021/03/20 01:17:04;;;;;;;2.80;1.83;;;;;;;18.54;49.73;103142.75;5049425;28;20037;-72
2021/03/20 01:19:30;;;;;;;2.80;2.00;;;;;;;18.46;49.72;103131.13;5078060;28;20029;-72
2021/03/20 01:21:55;;;;;;;2.70;1.80;;;;;;;18.48;49.72;103135.59;5034297;28;20386;-72
2021/03/20 01:24:20;;;;;;;2.38;1.70;;;;;;;18.46;49.81;103129.41;5079095;28;20421;-74
2021/03/20 01:26:46;;;;;;;2.33;1.75;;;;;;;18.37;49.68;103117.75;5051574;28;20036;-74
2021/03/20 01:29:11;;;;;;;2.10;1.58;;;;;;;18.47;49.68;103128.56;5041792;28;20033;-74
2021/03/20 01:31:37;;;;;;;2.20;1.60;;;;;;;18.50;49.70;103133.03;5056019;28;20483;-73
2021/03/20 01:34:02;;;;;;;1.88;1.33;;;;;;;18.38;49.85;103122.16;5066065;28;20029;-74
2021/03/20 01:36:27;;;;;;;3.20;1.63;;;;;;;18.48;49.70;103132.06;5054499;28;20033;-73
2021/03/20 01:38:53;;;;;;;2.38;1.83;;;;;;;18.43;49.44;103120.59;5057217;28;20040;-73
2021/03/20 01:41:22;;;;;;;2.50;1.85;;;;;;;18.48;49.62;103135.59;5068970;28;20036;-74
2021/03/20 01:43:48;;;;;;;2.75;1.90;;;;;;;18.47;49.50;103133.81;5055252;28;20100;-74
2021/03/20 01:46:47;;;;;;;3.22;1.92;;;;;;;18.46;49.66;103126.78;5060355;28;20490;-74
2021/03/20 01:49:29;;;;;;;2.70;1.75;;;;;;;18.45;49.85;103125.00;5049714;28;20510;-73
2021/03/20 01:52:01;;;;;;;2.22;1.52;;;;;;;18.41;49.50;103122.25;5061545;28;20029;-74
2021/03/20 01:54:32;;;;;;;3.08;1.98;;;;;;;18.40;49.72;103123.09;5065578;28;20040;-73
2021/03/20 01:56:58;;;;;;;2.15;1.45;;;;;;;18.43;49.60;103126.72;5065395;28;20021;-73
2021/03/20 01:59:24;;;;;;;3.47;2.00;;;;;;;18.44;49.56;103132.81;5054197;28;20043;-73
2021/03/20 02:01:50;;;;;;;3.65;1.80;;;;;;;18.43;49.67;103126.72;5070439;28;20074;-73
2021/03/20 02:04:15;;;;;;;3.35;2.22;;;;;;;18.43;49.40;103134.56;5055605;28;20510;-73
2021/03/20 02:06:41;;;;;;;2.30;1.90;;;;;;;18.38;49.63;103123.03;5043995;28;20048;-73
2021/03/20 02:09:09;;;;;;;2.42;1.80;;;;;;;18.41;49.91;103128.41;5018570;28;20045;-73
2021/03/20 02:11:48;;;;;;;2.55;1.90;;;;;;;18.41;49.48;103128.41;5052963;28;20021;-73
2021/03/20 02:14:36;;;;;;;2.03;1.80;;;;;;;18.41;49.57;103131.00;5069016;28;20083;-73
2021/03/20 02:17:09;;;;;;;2.63;1.52;;;;;;;18.38;49.48;103116.91;5045643;28;20482;-73
2021/03/20 02:19:41;;;;;;;2.67;1.85;;;;;;;18.41;49.62;103119.66;5061052;28;20475;-73
2021/03/20 02:22:13;;;;;;;2.38;2.05;;;;;;;18.39;49.58;103114.34;5054913;28;20368;-73
2021/03/20 02:25:09;;;;;;;3.25;1.90;;;;;;;18.39;49.65;103116.09;5062336;28;20082;-73
2021/03/20 02:28:11;;;;;;;2.70;1.63;;;;;;;18.38;49.48;103119.53;5050505;28;20514;-73
2021/03/20 02:30:55;;;;;;;3.00;1.90;;;;;;;18.38;49.42;103120.44;5052899;28;20034;-74
2021/03/20 02:33:35;;;;;;;2.70;1.90;;;;;;;18.39;49.49;103118.69;5040247;28;20025;-73
2021/03/20 02:36:37;;;;;;;2.40;1.90;;;;;;;18.35;49.33;103116.81;5053642;28;20499;-73
2021/03/20 02:39:11;;;;;;;1.90;1.63;;;;;;;18.37;49.57;103123.00;5035570;28;20047;-74
2021/03/20 02:42:05;;;;;;;2.58;1.55;;;;;;;18.37;49.80;103117.75;5048916;28;20048;-74
2021/03/20 02:44:44;;;;;;;2.78;1.60;;;;;;;18.35;49.52;103125.56;5050642;28;20063;-74
2021/03/20 02:47:16;;;;;;;1.55;1.35;;;;;;;18.34;49.43;103122.88;5054531;28;20052;-74
2021/03/20 02:49:54;;;;;;;1.90;1.63;;;;;;;18.35;49.40;103127.28;5061367;28;20036;-74
2021/03/20 02:52:25;;;;;;;2.85;1.83;;;;;;;18.35;49.34;103122.06;5070743;28;20443;-75
2021/03/20 02:55:17;;;;;;;2.42;1.70;;;;;;;18.36;49.46;103129.97;5053799;28;20076;-74
2021/03/20 02:58:01;;;;;;;2.45;1.70;;;;;;;18.34;49.50;103128.13;5046688;28;20037;-74
2021/03/20 03:00:40;;;;;;;3.13;1.88;;;;;;;18.28;49.25;103120.97;5042862;28;20051;-74
2021/03/20 03:03:09;;;;;;;3.22;1.67;;;;;;;18.31;49.38;103122.78;5047357;28;20501;-74
2021/03/20 03:06:04;;;;;;;2.58;1.70;;;;;;;18.31;49.52;103128.03;5064678;28;20090;-74
2021/03/20 03:08:37;;;;;;;2.50;2.05;;;;;;;18.26;49.45;103117.44;5038891;28;20091;-74
2021/03/20 03:11:10;;;;;;;2.40;1.95;;;;;;;18.32;49.48;103130.69;5031452;28;20387;-74
2021/03/20 03:13:40;;;;;;;2.00;1.80;;;;;;;18.31;49.21;103128.03;5020955;28;20025;-74
2021/03/20 03:16:19;;;;;;;2.17;1.50;;;;;;;18.26;49.34;103120.03;5045976;28;20033;-73
2021/03/20 03:18:49;;;;;;;2.75;2.15;;;;;;;18.29;49.42;103128.00;5045048;28;20025;-74
2021/03/20 03:21:16;;;;;;;2.47;1.83;;;;;;;18.24;49.38;103121.72;5027658;28;20444;-74
2021/03/20 03:23:42;;;;;;;2.55;2.08;;;;;;;18.30;49.33;103131.50;5044288;28;20037;-74
2021/03/20 03:26:24;;;;;;;2.88;2.13;;;;;;;18.24;49.27;103111.25;5021224;28;20029;-74
2021/03/20 03:28:53;;;;;;;1.90;1.60;;;;;;;18.21;49.15;103114.66;5042734;28;20078;-74
2021/03/20 03:31:33;;;;;;;2.42;2.05;;;;;;;18.27;49.23;103128.78;5041267;28;20108;-74
2021/03/20 03:34:08;;;;;;;1.75;1.33;;;;;;;18.26;49.46;103127.91;5042707;28;20088;-74
2021/03/20 03:36:49;;;;;;;2.40;1.80;;;;;;;18.25;49.29;103125.22;5031170;28;20028;-73
2021/03/20 03:39:28;;;;;;;2.55;1.60;;;;;;;18.25;49.37;103128.72;5027557;28;20511;-74
2021/03/20 03:41:54;;;;;;;2.17;1.85;;;;;;;18.24;49.26;103123.44;5031460;28;20048;-74
2021/03/20 03:44:19;;;;;;;2.53;1.95;;;;;;;18.25;49.26;103122.59;5018785;28;20071;-74
2021/03/20 03:46:47;;;;;;;2.28;1.95;;;;;;;18.25;49.31;103125.22;5023391;28;20037;-74
2021/03/20 03:49:18;;;;;;;2.08;1.63;;;;;;;18.18;49.31;103114.53;5037451;28;20033;-74
2021/03/20 03:51:43;;;;;;;2.53;1.90;;;;;;;18.16;49.39;103108.38;5029959;28;20055;-74
2021/03/20 03:54:09;;;;;;;1.90;1.48;;;;;;;18.22;49.31;103120.78;5033013;28;20506;-74
2021/03/20 03:56:51;;;;;;;2.33;1.70;;;;;;;18.17;49.37;103107.56;5031870;28;20586;-74
2021/03/20 03:59:40;;;;;;;2.10;1.52;;;;;;;18.21;49.35;103106.78;5030062;28;20025;-74
2021/03/20 04:02:21;;;;;;;2.22;1.60;;;;;;;18.22;49.13;103118.16;5036540;28;20504;-74
2021/03/20 04:05:18;;;;;;;1.55;1.20;;;;;;;18.20;49.37;103117.22;5053032;28;20032;-74
2021/03/20 04:08:02;;;;;;;2.30;1.60;;;;;;;18.21;49.15;103114.66;5018408;28;20048;-74
2021/03/20 04:10:43;;;;;;;1.75;1.30;;;;;;;18.20;49.08;103118.09;5051857;28;20029;-74
2021/03/20 04:13:34;;;;;;;1.92;1.40;;;;;;;18.16;49.20;103116.25;5026395;28;20117;-74
2021/03/20 04:16:02;;;;;;;2.03;1.55;;;;;;;18.21;49.11;103119.00;5037575;28;20036;-73
2021/03/20 04:18:55;;;;;;;2.05;1.58;;;;;;;18.19;49.19;103126.78;5033020;28;20432;-74
2021/03/20 04:21:29;;;;;;;1.98;1.45;;;;;;;18.18;49.31;103119.78;5034801;28;20372;-74
2021/03/20 04:24:01;;;;;;;2.30;1.60;;;;;;;18.18;49.02;103121.50;5020330;28;20391;-72
2021/03/20 04:26:37;;;;;;;2.20;1.77;;;;;;;18.16;49.11;103124.09;5020954;28;20076;-73
2021/03/20 04:29:15;;;;;;;2.55;2.03;;;;;;;18.15;49.33;103122.31;5031161;28;20024;-73
2021/03/20 04:31:51;;;;;;;2.47;1.83;;;;;;;18.16;49.23;103125.81;5042870;28;20029;-72
2021/03/20 04:34:20;;;;;;;1.83;1.55;;;;;;;18.16;49.10;103124.09;5033430;28;20044;-72
2021/03/20 04:36:50;;;;;;;1.55;1.25;;;;;;;18.12;49.35;103118.69;5035397;28;20059;-72
2021/03/20 04:39:20;;;;;;;2.03;1.48;;;;;;;18.25;49.45;103130.47;5039585;28;20034;-72
2021/03/20 04:41:46;;;;;;;2.47;1.20;;;;;;;18.31;49.18;103135.88;5034430;28;20080;-73
2021/03/20 04:44:12;;;;;;;2.00;1.70;;;;;;;18.30;49.07;103137.66;5044143;28;20036;-73
2021/03/20 04:46:38;;;;;;;2.20;1.42;;;;;;;18.31;49.14;103146.34;5033927;28;20047;-72
2021/03/20 04:49:16;;;;;;;2.17;1.50;;;;;;;18.36;49.01;103144.78;5023976;28;20048;-72
2021/03/20 04:51:47;;;;;;;1.48;1.20;;;;;;;18.36;48.95;103131.69;5025481;28;20078;-72
2021/03/20 04:54:17;;;;;;;1.67;1.38;;;;;;;18.41;49.03;103149.34;5049493;28;20032;-73
2021/03/20 04:56:55;;;;;;;2.17;1.63;;;;;;;18.38;49.13;103149.25;5048507;28;20021;-72
2021/03/20 04:59:33;;;;;;;1.65;1.20;;;;;;;18.41;48.95;103133.63;5031476;28;20025;-72
2021/03/20 05:02:03;;;;;;;2.00;1.58;;;;;;;18.48;48.96;103145.19;5040765;28;20047;-72
2021/03/20 05:04:34;;;;;;;3.10;1.40;;;;;;;18.44;49.20;103133.69;5016830;28;20066;-72
2021/03/20 05:07:01;;;;;;;2.13;1.42;;;;;;;18.49;49.00;103134.75;5034542;28;20041;-72
2021/03/20 05:09:30;;;;;;;1.45;1.20;;;;;;;18.51;48.97;103124.31;5036690;28;20025;-72
2021/03/20 05:11:57;;;;;;;3.05;1.80;;;;;;;18.55;49.07;103134.97;5037590;28;20034;-72
2021/03/20 05:14:35;;;;;;;1.75;1.00;;;;;;;18.52;49.17;103134.84;5029399;28;20032;-73
2021/03/20 05:17:01;;;;;;;2.45;1.40;;;;;;;18.55;49.23;103132.34;5039355;28;20103;-72
2021/03/20 05:19:28;;;;;;;1.30;0.90;;;;;;;18.55;49.21;103126.19;5037299;28;20037;-72
2021/03/20 05:21:55;;;;;;;1.70;1.25;;;;;;;18.55;49.26;103134.97;5023781;28;20112;-73
2021/03/20 05:24:25;;;;;;;1.45;0.90;;;;;;;18.55;49.12;103132.34;5029653;28;20094;-73
2021/03/20 05:26:52;;;;;;;1.55;1.15;;;;;;;18.64;49.02;103139.63;5028731;28;20514;-72
2021/03/20 05:29:18;;;;;;;2.83;1.35;;;;;;;18.56;49.08;103110.50;5031789;28;20464;-73
2021/03/20 05:31:44;;;;;;;1.10;0.85;;;;;;;18.57;49.20;103121.88;5041323;28;20037;-72
2021/03/20 05:34:24;;;;;;;1.50;0.90;;;;;;;18.65;49.07;103136.16;5035778;28;20037;-73
2021/03/20 05:36:50;;;;;;;1.75;1.17;;;;;;;18.70;49.08;103134.53;5031617;28;20352;-73
2021/03/20 05:39:17;;;;;;;1.88;1.10;;;;;;;18.69;49.08;103132.78;5042259;28;20090;-73
2021/03/20 05:42:27;;;;;;;1.35;0.95;;;;;;;18.66;49.36;103132.69;5020823;28;20188;-72
2021/03/20 05:45:11;;;;;;;1.55;1.10;;;;;;;18.74;49.15;103128.56;4995065;28;20094;-71
2021/03/20 05:48:12;;;;;;;1.13;0.98;;;;;;;18.74;49.09;103131.19;5020054;28;20041;-72
2021/03/20 05:50:40;;;;;;;1.77;1.27;;;;;;;18.69;48.65;103132.78;5034953;28;20458;-71
2021/03/20 05:53:30;;;;;;;1.13;0.95;;;;;;;18.66;49.28;103134.44;5045422;28;20399;-71
2021/03/20 05:55:58;;;;;;;1.77;1.17;;;;;;;18.63;49.38;103135.22;5033267;28;20044;-72
2021/03/20 05:58:56;;;;;;;1.48;1.08;;;;;;;18.60;49.46;103136.84;5041868;28;20029;-72
2021/03/20 06:01:27;;;;;;;1.70;1.00;;;;;;;18.58;49.43;103142.03;5029850;28;20120;-72
2021/03/20 06:04:33;;;;;;;2.13;1.17;;;;;;;18.51;49.56;103137.44;5013274;28;20029;-72
2021/03/20 06:07:18;;;;;;;1.73;1.30;;;;;;;18.55;49.43;103149.78;5043788;28;20084;-72
2021/03/20 06:10:31;;;;;;;2.50;1.40;;;;;;;18.53;49.60;103149.72;5064165;28;20115;-72
2021/03/20 06:13:03;;;;;;;1.58;0.90;;;;;;;18.47;49.40;103146.00;5047623;28;20033;-72
2021/03/20 06:16:05;;;;;;;1.85;1.10;;;;;;;18.52;49.45;103155.81;5058111;28;20044;-72
2021/03/20 06:18:55;;;;;;;2.63;1.13;;;;;;;18.52;49.51;103149.69;5054881;28;20107;-71
2021/03/20 06:21:46;;;;;;;1.50;1.00;;;;;;;18.59;49.43;103149.06;5063568;28;20058;-73
2021/03/20 06:24:33;;;;;;;2.40;1.55;;;;;;;18.68;49.25;103157.22;5055024;28;20028;-72
2021/03/20 06:27:00;;;;;;;1.63;1.38;;;;;;;18.66;49.29;103150.16;5056049;28;20029;-73
2021/03/20 06:29:40;;;;;;;2.65;1.25;;;;;;;18.69;49.20;103148.53;5059961;28;20025;-74
2021/03/20 06:32:30;;;;;;;1.92;1.10;;;;;;;18.76;48.92;103147.84;5053436;28;20025;-75
2021/03/20 06:35:03;;;;;;;1.45;1.00;;;;;;;18.80;49.09;103160.22;5055242;28;20486;-74
2021/03/20 06:37:32;;;;;;;;;;;;;;;18.80;49.19;103164.56;5050782;28;20033;-74
2021/03/20 06:40:20;;;;;;;1.92;1.13;;;;;;;18.85;48.79;103161.22;5065506;28;19921;-72
2021/03/20 06:42:47;;;;;;;3.75;1.50;;;;;;;18.78;48.64;103154.03;5040671;28;20087;-72
2021/03/20 06:45:23;;;;;;;1.90;1.42;;;;;;;18.69;48.13;103158.13;5047224;28;20170;-72
2021/03/20 06:47:57;;;;;;;3.08;2.40;;;;;;;18.64;47.63;103154.44;5049567;28;20028;-71
2021/03/20 06:50:33;;;;;;;3.13;2.15;;;;;;;18.61;47.43;103155.25;5060028;28;20481;-72
2021/03/20 06:53:02;;;;;;;3.08;2.30;;;;;;;18.60;46.47;103156.06;5051430;28;20111;-72
2021/03/20 06:55:41;;;;;;;5.63;3.03;;;;;;;18.58;46.64;103157.75;5058759;28;20025;-72
2021/03/20 06:58:26;;;;;;;6.90;3.20;;;;;;;18.65;47.02;103157.13;5049996;28;20033;-72
2021/03/20 07:00:52;;;;;;;7.28;3.60;;;;;;;18.75;46.98;103150.41;5050800;28;20043;-72
2021/03/20 07:03:48;;;;;;;8.38;3.28;;;;;;;18.79;46.86;103152.31;5051602;28;20113;-73
2021/03/20 07:06:30;;;;;;;7.32;2.83;;;;;;;18.81;47.14;103148.91;5044906;28;20045;-72
2021/03/20 07:09:01;;;;;;;7.38;2.90;;;;;;;18.88;47.25;103145.59;5050197;28;20036;-71
2021/03/20 07:11:27;;;;;;;12.48;3.47;;;;;;;18.89;47.23;103144.75;5047990;28;20375;-75
2021/03/20 07:13:58;;;;;;;11.70;4.28;;;;;;;18.87;47.46;103150.78;5049529;28;20029;-76
2021/03/20 07:16:24;;;;;;;6.15;3.72;;;;;;;18.90;47.58;103149.16;5046707;28;20496;-75
2021/03/20 07:18:53;;;;;;;8.68;4.00;;;;;;;18.91;47.58;103137.84;5051775;28;20035;-75
2021/03/20 07:21:22;;;;;;;5.85;3.40;;;;;;;18.95;47.43;103156.28;5052399;28;20028;-74
2021/03/20 07:23:59;;;;;;;7.47;3.53;;;;;;;18.89;47.54;103144.75;5053328;28;20426;-73
2021/03/20 07:26:26;;;;;;;8.73;3.40;;;;;;;19.02;47.64;103153.88;5056349;28;20025;-73
2021/03/20 07:28:54;;;;;;;7.30;3.67;;;;;;;19.03;47.84;103158.28;5048248;28;20140;-75
2021/03/20 07:31:20;;;;;;;6.15;3.22;;;;;;;18.95;47.76;103143.16;5057331;28;20075;-75
2021/03/20 07:33:49;;;;;;;7.47;3.13;;;;;;;19.02;47.98;103148.63;5045258;28;20033;-77
2021/03/20 07:36:20;;;;;;;6.78;3.25;;;;;;;19.07;47.90;103146.16;5041639;28;20083;-75
2021/03/20 07:39:03;;;;;;;6.20;3.58;;;;;;;18.96;47.74;103126.56;5051814;28;20025;-74
2021/03/20 07:41:43;;;;;;;8.63;2.88;;;;;;;19.11;47.82;103141.03;5045572;28;20466;-75
2021/03/20 07:44:08;;;;;;;6.32;3.30;;;;;;;19.21;47.82;103143.06;5035578;28;20040;-74
2021/03/20 07:46:35;;;;;;;4.70;2.88;;;;;;;19.19;47.69;103133.38;5032199;28;20029;-75
2021/03/20 07:49:04;;;;;;;6.43;3.95;;;;;;;19.20;47.71;103138.69;5027766;28;20036;-74
2021/03/20 07:51:45;;;;;;;4.30;3.25;;;;;;;19.28;47.63;103144.13;5071428;28;20106;-72
2021/03/20 07:54:21;;;;;;;7.28;3.78;;;;;;;19.33;47.41;103154.75;5054198;28;20477;-72
2021/03/20 07:56:46;;;;;;;7.20;3.35;;;;;;;19.23;47.66;103138.75;5050301;28;20091;-72
2021/03/20 07:59:23;;;;;;;6.53;3.20;;;;;;;19.28;47.82;103150.28;5056119;28;20029;-72
2021/03/20 08:02:01;;;;;;;7.10;3.35;;;;;;;19.28;48.03;103137.16;5054958;28;20463;-73
2021/03/20 08:05:17;;;;;;;4.20;2.30;;;;;;;19.32;47.97;103152.97;5053210;28;20035;-73
2021/03/20 08:07:49;;;;;;;5.70;2.78;;;;;;;19.27;47.99;103144.97;4987055;28;20084;-73
2021/03/20 08:10:23;;;;;;;3.80;2.38;;;;;;;19.34;48.07;103156.53;5061964;28;20087;-73
2021/03/20 08:12:53;;;;;;;3.90;2.53;;;;;;;19.30;47.95;103149.44;5044625;28;20036;-72
2021/03/20 08:15:24;;;;;;;5.50;2.65;;;;;;;19.35;48.05;103160.91;5046308;28;20021;-72
2021/03/20 08:17:50;;;;;;;4.57;2.20;;;;;;;19.35;48.18;103148.69;5055259;28;20048;-73
2021/03/20 08:20:16;;;;;;;3.88;2.55;;;;;;;19.40;48.23;103154.97;5047078;28;20029;-73
2021/03/20 08:23:25;;;;;;;3.80;2.33;;;;;;;19.35;48.14;103147.81;5050885;28;21226;-73
2021/03/20 08:26:18;;;;;;;4.22;2.20;;;;;;;19.44;48.21;103151.59;5048773;28;20033;-73
2021/03/20 08:28:55;;;;;;;4.60;2.57;;;;;;;19.45;48.09;103150.75;5051360;28;20040;-74
2021/03/20 08:31:38;;;;;;;5.18;2.38;;;;;;;19.39;48.11;103149.66;5053181;28;20027;-75
2021/03/20 08:34:40;;;;;;;7.30;2.00;;;;;;;19.37;48.12;103139.13;5056163;28;20108;-75
2021/03/20 08:37:29;;;;;;;3.72;1.95;;;;;;;19.51;48.09;103150.03;5034942;28;20041;-75
2021/03/20 08:40:22;;;;;;;3.22;2.30;;;;;;;19.55;48.02;103155.44;5056725;28;20032;-74
2021/03/20 08:43:25;;;;;;;5.63;1.73;;;;;;;19.61;47.90;103154.69;5060422;28;20506;-75
2021/03/20 08:46:12;;;;;;;5.85;2.15;;;;;;;19.61;47.97;103152.06;5068947;28;20028;-75
2021/03/20 08:48:51;;;;;;;3.63;1.80;;;;;;;19.64;48.01;103149.53;5062417;28;20017;-73
2021/03/20 08:51:37;;;;;;;2.53;1.60;;;;;;;19.67;47.59;103141.75;5054921;28;20033;-73
2021/03/20 08:54:28;;;;;;;5.03;2.78;;;;;;;19.65;47.70;103143.44;5060784;28;20031;-73
2021/03/20 08:57:32;;;;;;;4.20;2.13;;;;;;;19.57;47.77;103150.22;5081177;28;20417;-73
2021/03/20 09:00:00;;;;;;;5.40;2.17;;;;;;;19.47;47.73;103138.56;5033976;28;20032;-74
2021/03/20 09:02:25;;;;;;;3.35;2.08;;;;;;;19.49;48.18;103147.38;5061308;28;20060;-74
2021/03/20 09:04:59;;;;;;;4.90;1.75;;;;;;;19.45;48.01;103140.25;5067443;28;20474;-74
2021/03/20 09:07:31;;;;;;;4.25;1.98;;;;;;;19.39;48.08;103147.94;5065213;28;20044;-74
2021/03/20 09:10:03;;;;;;;6.40;2.40;;;;;;;19.43;48.02;103148.91;5056266;28;20029;-74
2021/03/20 09:12:39;;;;;;;3.55;1.77;;;;;;;19.44;48.19;103143.72;5073642;28;20044;-74
2021/03/20 09:15:14;;;;;;;4.15;2.33;;;;;;;19.43;48.23;103144.56;5061140;28;20021;-75
2021/03/20 09:17:42;;;;;;;4.32;1.70;;;;;;;19.42;47.92;103136.66;5064330;28;20024;-74
2021/03/20 09:20:24;;;;;;;4.10;2.08;;;;;;;19.47;48.37;103138.56;5058382;28;20081;-73
2021/03/20 09:22:51;;;;;;;5.43;1.83;;;;;;;19.50;48.64;103138.66;5055973;28;20017;-77
2021/03/20 09:25:36;;;;;;;2.67;2.00;;;;;;;19.47;48.53;103135.06;5061550;28;20478;-77
2021/03/20 09:28:08;;;;;;;4.95;1.98;;;;;;;19.46;48.71;103146.38;5064503;28;20035;-77
2021/03/20 09:30:44;;;;;;;5.15;2.47;;;;;;;19.39;48.85;103136.56;5064944;28;20024;-76
2021/03/20 09:33:28;;;;;;;4.00;1.77;;;;;;;19.43;48.71;103135.81;5075448;28;20440;-78
2021/03/20 09:36:05;;;;;;;6.35;2.00;;;;;;;19.43;48.65;103143.66;5082289;28;20037;-73
2021/03/20 09:38:33;;;;;;;4.70;1.92;;;;;;;19.39;48.93;103145.31;5068564;28;20032;-76
2021/03/20 09:41:00;;;;;;;4.70;2.30;;;;;;;19.39;49.10;103134.81;5067679;28;20028;-75
2021/03/20 09:44:03;;;;;;;4.28;2.10;;;;;;;19.38;48.90;103140.03;5052624;28;20103;-77
2021/03/20 09:46:41;;;;;;;5.15;2.30;;;;;;;19.33;49.01;103147.78;5046337;28;20099;-77
2021/03/20 09:49:06;;;;;;;3.33;1.40;;;;;;;19.34;49.29;103148.69;5046066;28;20028;-76
2021/03/20 09:51:54;;;;;;;5.55;2.38;;;;;;;19.30;49.08;103149.44;5041206;28;20378;-77
2021/03/20 09:54:22;;;;;;;3.53;2.60;;;;;;;19.28;48.96;103146.75;5039620;28;20021;-77
2021/03/20 09:57:06;;;;;;;3.55;1.77;;;;;;;19.34;48.96;103151.31;5054054;28;20471;-76
2021/03/20 09:59:33;;;;;;;2.85;1.73;;;;;;;19.33;48.90;103144.28;5044271;28;20033;-77
2021/03/20 10:02:01;;;;;;;4.63;2.67;;;;;;;19.30;48.81;103139.81;5060415;28;20055;-77
2021/03/20 10:04:34;;;;;;;2.72;1.80;;;;;;;19.23;48.83;103122.13;5049798;28;20051;-73
2021/03/20 10:07:22;;;;;;;6.15;2.38;;;;;;;19.26;48.43;103138.84;5048169;28;20041;-76
2021/03/20 10:10:10;;;;;;;3.55;2.22;;;;;;;19.26;48.60;103137.94;5057404;28;20034;-75
2021/03/20 10:12:46;;;;;;;4.60;2.13;;;;;;;19.23;48.81;103130.88;5063213;28;20056;-75
2021/03/20 10:15:14;;;;;;;3.42;1.70;;;;;;;19.23;48.60;103130.88;5045109;28;20029;-75
2021/03/20 10:18:01;;;;;;;5.05;2.63;;;;;;;19.22;48.26;103117.72;5053500;28;20025;-75
2021/03/20 10:21:02;;;;;;;3.38;1.95;;;;;;;19.23;48.33;103123.00;5039578;28;20383;-79
2021/03/20 10:23:41;;;;;;;2.75;1.67;;;;;;;19.28;48.51;103120.53;5008943;28;20093;-77
2021/03/20 10:26:47;;;;;;;3.22;1.92;;;;;;;19.27;48.44;103110.88;5050215;28;20098;-77
2021/03/20 10:29:18;;;;;;;5.85;2.10;;;;;;;19.27;48.52;103116.13;5051959;28;20494;-76
2021/03/20 10:31:46;;;;;;;6.45;1.90;;;;;;;19.27;48.54;103114.38;5062268;28;20546;-74
2021/03/20 10:34:19;;;;;;;4.25;2.33;;;;;;;19.28;48.67;103107.41;5042935;28;20029;-77
2021/03/20 10:37:00;;;;;;;4.10;2.03;;;;;;;19.23;48.64;103096.78;5052519;28;20036;-79
2021/03/20 10:39:43;;;;;;;3.47;1.80;;;;;;;19.21;48.75;103087.13;5052165;28;20044;-77
2021/03/20 10:42:19;;;;;;;3.92;1.95;;;;;;;19.29;48.75;103106.56;5064075;28;20025;-76
2021/03/20 10:44:50;;;;;;;4.07;1.70;;;;;;;19.28;48.69;103103.03;5061834;28;20025;-76
2021/03/20 10:47:25;;;;;;;3.47;2.13;;;;;;;19.25;48.71;103097.72;5053659;28;20068;-75
2021/03/20 10:49:56;;;;;;;6.38;2.20;;;;;;;19.20;48.73;103096.72;5042622;28;20031;-76
2021/03/20 10:52:37;;;;;;;6.72;1.85;;;;;;;19.27;48.82;103113.50;5055068;28;20025;-77
2021/03/20 10:55:16;;;;;;;5.63;1.50;;;;;;;19.24;49.13;103106.41;5055109;28;20474;-78
2021/03/20 10:57:42;;;;;;;6.05;2.67;;;;;;;19.17;48.96;103090.47;5051750;28;20087;-76
2021/03/20 11:00:24;;;;;;;5.40;1.65;;;;;;;19.20;48.99;103109.81;5053328;28;20037;-77
2021/03/20 11:02:50;;;;;;;4.78;2.63;;;;;;;19.19;49.29;103104.53;5064008;28;20390;-77
2021/03/20 11:05:21;;;;;;;5.80;2.35;;;;;;;19.16;49.22;103101.81;5066065;28;20036;-77
2021/03/20 11:08:11;;;;;;;2.20;1.40;;;;;;;19.19;49.46;103107.16;5065049;28;20047;-76
2021/03/20 11:10:40;;;;;;;4.28;1.80;;;;;;;19.16;49.28;103102.72;5061786;28;20055;-77
2021/03/20 11:13:27;;;;;;;6.70;1.95;;;;;;;19.15;49.50;103100.03;5053605;28;20033;-76
2021/03/20 11:16:04;;;;;;;3.45;2.10;;;;;;;19.14;49.45;103091.28;5056566;28;20025;-76
2021/03/20 11:18:37;;;;;;;5.90;2.20;;;;;;;19.09;49.35;103074.50;5052991;28;20059;-77
2021/03/20 11:21:13;;;;;;;;;;;;;;;19.19;49.25;103092.31;5052396;28;20032;-78
2021/03/20 11:23:40;;;;;;;6.65;2.00;;;;;;;19.13;49.44;103084.25;5052664;28;19962;-77
2021/03/20 11:26:33;;;;;;;3.35;1.83;;;;;;;19.12;49.64;103090.34;5059088;28;20082;-77
2021/03/20 11:29:00;;;;;;;3.20;1.77;;;;;;;19.11;49.59;103083.31;5051201;28;20029;-77
2021/03/20 11:31:26;;;;;;;3.58;2.13;;;;;;;19.12;49.64;103089.44;5052310;28;20044;-77
2021/03/20 11:33:52;;;;;;;3.83;1.73;;;;;;;19.10;49.75;103085.91;5054216;28;20087;-76
2021/03/20 11:36:22;;;;;;;3.15;1.80;;;;;;;19.07;49.80;103078.84;5058202;28;20029;-77
2021/03/20 11:38:48;;;;;;;2.83;1.60;;;;;;;19.09;49.75;103076.25;5055949;28;20032;-77
2021/03/20 11:41:14;;;;;;;3.97;1.92;;;;;;;19.08;49.86;103072.78;5043837;28;20048;-76
2021/03/20 11:44:19;;;;;;;3.65;2.28;;;;;;;19.07;49.68;103076.22;5038477;28;20033;-77
2021/03/20 11:46:51;;;;;;;4.07;1.52;;;;;;;19.06;50.02;103069.22;5040636;28;20045;-76
2021/03/20 11:49:38;;;;;;;5.53;1.92;;;;;;;19.06;49.83;103078.81;5052179;28;20020;-77
2021/03/20 11:52:08;;;;;;;3.75;2.35;;;;;;;19.07;49.92;103062.22;5065519;28;20382;-77
2021/03/20 11:54:37;;;;;;;6.25;1.55;;;;;;;19.08;49.79;103058.78;5062809;28;20031;-77
2021/03/20 11:57:05;;;;;;;6.07;2.17;;;;;;;19.06;49.89;103057.84;5062318;28;20489;-76
2021/03/20 11:59:35;;;;;;;7.28;1.92;;;;;;;19.05;49.80;103046.44;5052590;28;20024;-77
2021/03/20 12:02:01;;;;;;;2.67;1.73;;;;;;;19.05;49.69;103048.19;5052412;28;20032;-77
2021/03/20 12:04:29;;;;;;;2.17;1.40;;;;;;;19.07;49.81;103052.63;5060387;28;20036;-77